createdAt,value
2023-01-13T00:01:29.628Z,97.05
2023-01-13T00:03:57.735Z,97.23
2023-01-13T00:06:26.086Z,97.73
2023-01-13T00:08:54.883Z,97.59
2023-01-13T00:11:23.391Z,97.92
2023-01-13T00:13:51.563Z,98.20
2023-01-13T00:16:21.030Z,98.33
2023-01-13T00:18:51.259Z,98.68
2023-01-13T00:21:23.225Z,98.74
2023-01-13T00:23:55.316Z,99.05
2023-01-13T00:26:27.820Z,99.40
2023-01-13T00:28:59.013Z,99.40
2023-01-13T00:31:29.462Z,99.66
2023-01-13T00:34:01.610Z,99.77
2023-01-13T00:36:30.890Z,99.64
2023-01-13T00:38:59.451Z,99.43
2023-01-13T00:41:28.047Z,99.30
2023-01-13T00:43:55.899Z,99.41
2023-01-13T00:46:23.886Z,99.23
2023-01-13T00:48:51.915Z,99.11
2023-01-13T00:51:21.691Z,99.24
2023-01-13T00:53:51.981Z,98.70
2023-01-13T00:56:40.529Z,98.90
2023-01-13T00:59:13.743Z,99.20
2023-01-13T01:01:41.994Z,99.11
2023-01-13T01:04:10.932Z,98.84
2023-01-13T01:06:38.858Z,98.69
2023-01-13T01:09:07.263Z,98.65
2023-01-13T01:11:35.351Z,98.81
2023-01-13T01:14:04.330Z,98.97
2023-01-13T01:16:34.007Z,98.74
2023-01-13T01:19:02.390Z,98.74
2023-01-13T01:21:31.346Z,98.56
2023-01-13T01:24:02.333Z,98.89
2023-01-13T01:26:31.954Z,98.64
2023-01-13T01:29:02.064Z,98.43
2023-01-13T01:31:33.256Z,98.34
2023-01-13T01:34:02.063Z,98.37
2023-01-13T01:36:30.459Z,98.30
2023-01-13T01:38:59.945Z,98.51
2023-01-13T01:41:32.609Z,98.52
2023-01-13T01:44:42.669Z,98.38
2023-01-13T01:47:16.132Z,98.33
2023-01-13T01:49:45.913Z,98.54
2023-01-13T01:52:25.956Z,98.43
2023-01-13T01:55:01.466Z,98.35
2023-01-13T01:57:45.565Z,98.28
2023-01-13T02:00:14.778Z,98.37
2023-01-13T02:02:47.331Z,98.34
2023-01-13T02:05:15.983Z,98.40
2023-01-13T02:07:48.808Z,98.48
2023-01-13T02:10:24.033Z,98.37
2023-01-13T02:12:53.119Z,98.66
2023-01-13T02:15:55.017Z,98.99
2023-01-13T02:19:10.700Z,99.16
2023-01-13T02:22:15.234Z,99.22
2023-01-13T02:25:16.659Z,99.23
2023-01-13T02:28:11.957Z,99.19
2023-01-13T02:31:18.180Z,99.26
2023-01-13T02:34:07.138Z,99.59
2023-01-13T02:36:56.680Z,99.61
2023-01-13T02:39:45.970Z,99.83
2023-01-13T02:42:42.211Z,99.77
2023-01-13T02:45:19.961Z,99.82
2023-01-13T02:47:55.792Z,99.83
2023-01-13T02:50:32.296Z,99.77
2023-01-13T02:53:08.680Z,99.78
2023-01-13T02:55:42.614Z,99.66
2023-01-13T02:58:15.857Z,99.61
2023-01-13T03:00:45.976Z,99.46
2023-01-13T03:03:14.442Z,99.39
2023-01-13T03:05:44.823Z,99.50
2023-01-13T03:08:46.640Z,99.25
2023-01-13T03:11:18.894Z,99.19
2023-01-13T03:14:28.000Z,99.02
2023-01-13T03:17:27.809Z,98.73
2023-01-13T03:20:03.720Z,98.91
2023-01-13T03:22:48.659Z,98.63
2023-01-13T03:25:25.955Z,98.51
2023-01-13T03:28:15.401Z,98.39
2023-01-13T03:30:53.494Z,97.94
2023-01-13T03:33:36.224Z,97.79
2023-01-13T03:36:10.841Z,97.61
2023-01-13T03:38:45.412Z,97.64
2023-01-13T03:41:34.172Z,97.21
2023-01-13T03:44:32.963Z,97.27
2023-01-13T03:47:31.683Z,97.17
2023-01-13T03:50:17.995Z,96.89
2023-01-13T03:52:55.591Z,96.67
2023-01-13T03:55:31.332Z,96.65
2023-01-13T03:58:14.193Z,96.28
2023-01-13T04:00:52.601Z,96.16
2023-01-13T04:03:42.400Z,96.07
2023-01-13T04:06:49.059Z,95.87
2023-01-13T04:09:48.177Z,95.45
2023-01-13T04:12:51.434Z,95.48
2023-01-13T04:15:23.884Z,95.48
2023-01-13T04:17:54.324Z,95.39
2023-01-13T04:20:22.267Z,95.36
2023-01-13T04:22:50.207Z,95.46
2023-01-13T04:25:18.120Z,95.30
2023-01-13T04:27:45.987Z,95.09
2023-01-13T04:30:14.012Z,95.42
2023-01-13T04:32:41.888Z,95.48
2023-01-13T04:35:09.916Z,95.61
2023-01-13T04:37:37.885Z,95.48
2023-01-13T04:40:07.058Z,95.51
2023-01-13T04:42:34.944Z,95.55
2023-01-13T04:45:03.045Z,95.46
2023-01-13T04:47:30.911Z,95.38
2023-01-13T04:49:58.776Z,95.64
2023-01-13T04:52:26.636Z,95.66
2023-01-13T04:54:54.590Z,95.84
2023-01-13T04:57:22.486Z,96.01
2023-01-13T04:59:50.352Z,96.17
2023-01-13T05:02:21.263Z,96.37
2023-01-13T05:04:49.339Z,96.26
2023-01-13T05:07:19.563Z,96.32
2023-01-13T05:09:47.413Z,96.33
2023-01-13T05:12:34.318Z,96.46
2023-01-13T05:15:21.273Z,96.42
2023-01-13T05:17:50.231Z,96.58
2023-01-13T05:20:18.329Z,96.72
2023-01-13T05:23:04.836Z,96.68
2023-01-13T05:25:37.494Z,96.65
2023-01-13T05:28:07.134Z,96.54
2023-01-13T05:30:45.890Z,96.60
2023-01-13T05:33:18.033Z,96.54
2023-01-13T05:35:47.472Z,96.37
2023-01-13T05:38:17.974Z,96.35
2023-01-13T05:41:04.410Z,96.19
2023-01-13T05:43:33.144Z,96.36
2023-01-13T05:46:02.308Z,95.92
2023-01-13T05:48:42.471Z,96.05
2023-01-13T05:51:12.746Z,96.17
2023-01-13T05:53:41.376Z,96.01
2023-01-13T05:56:10.060Z,96.07
2023-01-13T05:58:38.241Z,96.05
2023-01-13T06:01:08.756Z,96.07
2023-01-13T06:03:37.788Z,96.22
2023-01-13T06:06:08.706Z,96.03
2023-01-13T06:08:39.426Z,95.96
2023-01-13T06:11:07.924Z,95.95
2023-01-13T06:13:35.888Z,96.14
2023-01-13T06:16:04.110Z,96.04
2023-01-13T06:18:32.154Z,96.27
2023-01-13T06:21:00.120Z,96.14
2023-01-13T06:23:29.218Z,96.08
2023-01-13T06:26:07.535Z,96.19
2023-01-13T06:28:35.542Z,95.94
2023-01-13T06:31:06.621Z,96.03
2023-01-13T06:33:43.679Z,96.09
2023-01-13T06:36:27.270Z,95.75
2023-01-13T06:39:01.213Z,95.80
2023-01-13T06:41:51.117Z,95.96
2023-01-13T06:44:20.587Z,95.95
2023-01-13T06:46:48.574Z,95.99
2023-01-13T06:49:16.458Z,95.65
2023-01-13T06:51:44.378Z,95.60
2023-01-13T06:54:12.342Z,96.03
2023-01-13T06:56:40.230Z,95.88
2023-01-13T06:59:08.287Z,95.86
2023-01-13T07:01:36.233Z,95.74
2023-01-13T07:04:04.969Z,95.80
2023-01-13T07:06:32.959Z,95.80
2023-01-13T07:09:00.824Z,95.82
2023-01-13T07:11:28.726Z,95.91
2023-01-13T07:14:15.046Z,95.88
2023-01-13T07:16:44.412Z,95.99
2023-01-13T07:19:12.387Z,96.03
2023-01-13T07:21:40.267Z,95.80
2023-01-13T07:24:08.190Z,95.61
2023-01-13T07:26:36.029Z,95.61
2023-01-13T07:29:03.902Z,95.79
2023-01-13T07:31:31.965Z,95.59
2023-01-13T07:33:59.955Z,95.66
2023-01-13T07:36:27.793Z,95.51
2023-01-13T07:38:56.655Z,95.53
2023-01-13T07:41:43.325Z,95.28
2023-01-13T07:44:11.261Z,95.14
2023-01-13T07:46:39.861Z,95.19
2023-01-13T07:49:08.931Z,94.86
2023-01-13T07:51:39.267Z,95.09
2023-01-13T07:54:07.242Z,95.30
2023-01-13T07:56:35.145Z,95.23
2023-01-13T07:59:03.389Z,95.37
2023-01-13T08:01:31.937Z,95.32
2023-01-13T08:04:00.124Z,95.11
2023-01-13T08:06:29.099Z,94.90
2023-01-13T08:08:57.014Z,95.09
2023-01-13T08:11:24.937Z,94.50
2023-01-13T08:13:57.746Z,94.47
2023-01-13T08:16:25.765Z,93.97
2023-01-13T08:18:53.692Z,94.04
2023-01-13T08:21:21.902Z,93.92
2023-01-13T08:23:50.105Z,93.58
2023-01-13T08:26:18.656Z,93.55
2023-01-13T08:28:46.546Z,93.22
2023-01-13T08:31:17.010Z,92.82
2023-01-13T08:33:45.790Z,92.31
2023-01-13T08:36:13.785Z,92.05
2023-01-13T08:38:42.221Z,91.71
2023-01-13T08:41:14.313Z,91.31
2023-01-13T08:43:42.313Z,90.85
2023-01-13T08:46:10.346Z,90.32
2023-01-13T08:48:38.276Z,90.38
2023-01-13T08:51:09.151Z,90.07
2023-01-13T08:53:37.027Z,90.14
2023-01-13T08:56:11.636Z,90.20
2023-01-13T08:58:40.822Z,89.98
2023-01-13T09:01:11.053Z,90.00
2023-01-13T09:03:39.574Z,89.15
2023-01-13T09:06:07.951Z,88.78
2023-01-13T09:08:36.243Z,88.68
2023-01-13T09:11:24.381Z,88.69
2023-01-13T09:13:52.729Z,88.62
2023-01-13T09:16:20.623Z,88.01
2023-01-13T09:18:48.535Z,88.18
2023-01-13T09:21:19.925Z,88.07
2023-01-13T09:23:48.094Z,87.61
2023-01-13T09:26:20.781Z,87.62
2023-01-13T09:28:48.816Z,87.71
2023-01-13T09:31:16.764Z,88.44
2023-01-13T09:34:03.410Z,87.67
2023-01-13T09:36:31.367Z,87.71
2023-01-13T09:38:59.416Z,87.66
2023-01-13T09:41:49.685Z,87.44
2023-01-13T09:44:29.547Z,86.66
2023-01-13T09:47:04.471Z,85.93
2023-01-13T09:49:40.491Z,85.42
2023-01-13T09:52:24.584Z,85.55
2023-01-13T09:55:06.175Z,85.73
2023-01-13T09:57:37.809Z,86.57
2023-01-13T10:00:23.843Z,86.98
2023-01-13T10:03:21.287Z,87.33
2023-01-13T10:06:17.750Z,87.20
2023-01-13T10:08:48.946Z,87.53
2023-01-13T10:11:38.533Z,89.25
2023-01-13T10:14:26.057Z,86.46
2023-01-13T10:17:32.393Z,86.06
2023-01-13T10:20:24.754Z,86.21
2023-01-13T10:23:34.311Z,85.84
2023-01-13T10:26:21.028Z,85.53
2023-01-13T10:28:54.428Z,84.72
2023-01-13T10:31:24.365Z,84.31
2023-01-13T10:34:06.175Z,83.96
2023-01-13T10:36:34.107Z,83.67
2023-01-13T10:39:16.677Z,83.08
2023-01-13T10:41:44.804Z,82.80
2023-01-13T10:44:18.563Z,82.68
2023-01-13T10:46:56.916Z,83.25
2023-01-13T10:49:38.716Z,83.31
2023-01-13T10:52:27.786Z,83.25
2023-01-13T10:54:56.564Z,83.74
2023-01-13T10:57:27.591Z,83.64
2023-01-13T10:59:56.251Z,84.03
2023-01-13T11:02:31.519Z,83.87
2023-01-13T11:05:22.751Z,84.46
2023-01-13T11:07:58.015Z,84.80
2023-01-13T11:10:29.295Z,85.19
2023-01-13T11:13:18.199Z,85.50
2023-01-13T11:16:04.357Z,86.63
2023-01-13T11:19:14.097Z,87.83
2023-01-13T11:22:19.112Z,88.72
2023-01-13T11:25:09.546Z,89.94
2023-01-13T11:27:53.127Z,91.67
2023-01-13T11:30:50.842Z,92.18
2023-01-13T11:33:57.251Z,92.80
2023-01-13T11:36:34.702Z,92.74
2023-01-13T11:39:44.347Z,92.43
2023-01-13T11:42:46.393Z,92.92
2023-01-13T11:45:31.971Z,92.90
2023-01-13T11:48:02.197Z,92.37
2023-01-13T11:50:57.189Z,93.11
2023-01-13T11:53:36.140Z,93.09
2023-01-13T11:56:40.848Z,92.52
2023-01-13T11:59:43.251Z,92.41
2023-01-13T12:03:10.209Z,92.19
2023-01-13T12:05:50.180Z,91.77
2023-01-13T12:08:31.142Z,91.94
2023-01-13T12:11:22.798Z,92.31
2023-01-13T12:14:24.686Z,92.19
2023-01-13T12:16:52.638Z,92.04
2023-01-13T12:19:28.047Z,91.83
2023-01-13T12:22:40.524Z,91.82
2023-01-13T12:25:54.898Z,91.70
2023-01-13T12:28:32.348Z,91.45
2023-01-13T12:31:02.815Z,91.65
2023-01-13T12:34:27.799Z,91.46
2023-01-13T12:37:31.170Z,91.46
2023-01-13T12:40:24.946Z,91.53
2023-01-13T12:43:41.907Z,91.37
2023-01-13T12:46:18.626Z,91.50
2023-01-13T12:48:56.890Z,91.75
2023-01-13T12:51:37.666Z,91.22
2023-01-13T12:54:37.378Z,91.35
2023-01-13T12:57:22.346Z,90.91
2023-01-13T13:00:14.102Z,90.37
2023-01-13T13:03:12.400Z,90.66
2023-01-13T13:06:06.877Z,91.11
2023-01-13T13:09:06.681Z,90.90
2023-01-13T13:12:03.130Z,91.21
2023-01-13T13:14:37.000Z,91.79
2023-01-13T13:17:29.902Z,91.99
2023-01-13T13:20:00.114Z,92.83
2023-01-13T13:22:27.947Z,92.52
2023-01-13T13:24:55.831Z,92.32
2023-01-13T13:27:31.276Z,92.16
2023-01-13T13:30:03.912Z,92.22
2023-01-13T13:33:07.972Z,92.25
2023-01-13T13:35:51.922Z,91.63
2023-01-13T13:39:29.681Z,92.06
2023-01-13T13:42:54.646Z,91.59
2023-01-13T13:45:45.195Z,91.44
2023-01-13T13:48:22.591Z,91.40
2023-01-13T13:51:00.267Z,90.88
2023-01-13T13:53:35.996Z,90.92
2023-01-13T13:56:15.374Z,91.66
2023-01-13T13:58:43.709Z,91.33
2023-01-13T14:01:35.173Z,91.23
2023-01-13T14:04:29.914Z,91.59
2023-01-13T14:07:18.478Z,91.67
2023-01-13T14:09:54.642Z,91.50
2023-01-13T14:12:27.551Z,91.32
2023-01-13T14:14:57.524Z,90.62
2023-01-13T14:17:28.990Z,90.53
2023-01-13T14:20:11.938Z,90.35
2023-01-13T14:22:51.015Z,90.26
2023-01-13T14:25:39.459Z,90.21
2023-01-13T14:28:39.829Z,90.12
2023-01-13T14:31:09.932Z,90.01
2023-01-13T14:33:51.699Z,89.76
2023-01-13T14:36:23.679Z,89.70
2023-01-13T14:39:03.436Z,89.60
2023-01-13T14:41:53.467Z,89.36
2023-01-13T14:44:27.616Z,89.35
2023-01-13T14:47:00.459Z,89.48
2023-01-13T14:49:54.875Z,89.38
2023-01-13T14:52:26.027Z,89.31
2023-01-13T14:55:08.249Z,89.46
2023-01-13T14:57:39.478Z,89.55
2023-01-13T15:00:13.574Z,89.14
2023-01-13T15:02:53.673Z,89.80
2023-01-13T15:05:24.479Z,88.65
2023-01-13T15:08:05.112Z,88.48
2023-01-13T15:10:54.627Z,88.29
2023-01-13T15:13:35.782Z,87.90
2023-01-13T15:16:13.268Z,87.99
2023-01-13T15:18:41.265Z,87.94
2023-01-13T15:21:10.067Z,87.54
2023-01-13T15:23:41.087Z,87.60
2023-01-13T15:26:26.041Z,87.85
2023-01-13T15:28:57.201Z,87.87
2023-01-13T15:31:26.751Z,87.62
2023-01-13T15:33:54.823Z,87.70
2023-01-13T15:36:30.068Z,87.77
2023-01-13T15:38:59.683Z,87.95
2023-01-13T15:41:46.452Z,86.95
2023-01-13T15:44:35.075Z,87.31
2023-01-13T15:47:07.392Z,87.59
2023-01-13T15:49:41.986Z,87.39
2023-01-13T15:52:27.545Z,87.14
2023-01-13T15:54:55.494Z,87.13
2023-01-13T15:57:34.123Z,87.46
2023-01-13T16:00:11.817Z,87.46
2023-01-13T16:02:39.847Z,87.49
2023-01-13T16:05:08.113Z,87.67
2023-01-13T16:07:36.392Z,87.68
2023-01-13T16:10:14.745Z,87.83
2023-01-13T16:12:42.688Z,87.98
2023-01-13T16:15:15.780Z,88.02
2023-01-13T16:17:45.875Z,88.01
2023-01-13T16:20:16.983Z,87.98
2023-01-13T16:22:48.029Z,87.95
2023-01-13T16:25:24.834Z,87.92
2023-01-13T16:27:53.635Z,88.11
2023-01-13T16:30:30.830Z,88.05
2023-01-13T16:32:59.018Z,87.86
2023-01-13T16:35:28.624Z,87.95
2023-01-13T16:37:58.434Z,88.38
2023-01-13T16:40:34.142Z,88.48
2023-01-13T16:43:03.792Z,88.37
2023-01-13T16:45:32.955Z,88.40
2023-01-13T16:48:01.228Z,88.19
2023-01-13T16:50:42.095Z,88.40
2023-01-13T16:53:11.904Z,88.31
2023-01-13T16:55:41.969Z,88.41
2023-01-13T16:58:18.694Z,88.60
2023-01-13T17:00:47.753Z,88.72
2023-01-13T17:03:17.047Z,88.69
2023-01-13T17:05:49.605Z,88.62
2023-01-13T17:08:18.281Z,88.47
2023-01-13T17:10:47.338Z,88.57
2023-01-13T17:13:16.965Z,88.63
2023-01-13T17:15:45.825Z,88.64
2023-01-13T17:18:13.907Z,88.33
2023-01-13T17:20:41.924Z,88.47
2023-01-13T17:23:09.794Z,88.29
2023-01-13T17:25:37.761Z,88.08
2023-01-13T17:28:05.770Z,88.01
2023-01-13T17:30:33.689Z,87.96
2023-01-13T17:33:01.646Z,87.22
2023-01-13T17:35:29.664Z,87.58
2023-01-13T17:37:57.565Z,87.42
2023-01-13T17:40:25.431Z,86.97
2023-01-13T17:42:53.430Z,87.19
2023-01-13T17:45:21.415Z,86.95
2023-01-13T17:47:49.405Z,86.95
2023-01-13T17:50:17.545Z,86.75
2023-01-13T17:52:45.400Z,87.19
2023-01-13T17:55:13.244Z,87.10
2023-01-13T17:57:41.132Z,86.66
2023-01-13T18:00:12.042Z,86.43
2023-01-13T18:02:42.713Z,86.63
2023-01-13T18:05:12.555Z,86.51
2023-01-13T18:07:40.527Z,85.97
2023-01-13T18:10:09.680Z,85.77
2023-01-13T18:12:37.744Z,85.66
2023-01-13T18:15:07.130Z,85.52
2023-01-13T18:17:35.102Z,85.56
2023-01-13T18:20:22.100Z,85.11
2023-01-13T18:23:08.660Z,84.87
2023-01-13T18:25:55.457Z,84.31
2023-01-13T18:28:23.361Z,83.86
2023-01-13T18:30:51.297Z,83.78
2023-01-13T18:33:19.282Z,83.76
2023-01-13T18:35:47.325Z,83.50
2023-01-13T18:38:27.658Z,83.11
2023-01-13T18:40:55.545Z,83.15
2023-01-13T18:43:23.485Z,82.79
2023-01-13T18:45:51.555Z,82.82
2023-01-13T18:48:19.571Z,83.10
2023-01-13T18:50:47.558Z,82.24
2023-01-13T18:53:15.417Z,82.09
2023-01-13T18:55:43.310Z,81.75
2023-01-13T18:58:11.504Z,81.94
2023-01-13T19:00:39.360Z,81.73
2023-01-13T19:05:37.799Z,81.60
2023-01-13T19:08:06.234Z,81.52
2023-01-13T19:10:34.254Z,81.65
2023-01-13T19:13:02.225Z,81.55
2023-01-13T19:15:30.359Z,81.46
2023-01-13T19:17:58.749Z,81.85
2023-01-13T19:20:26.693Z,81.80
2023-01-13T19:22:54.829Z,81.67
2023-01-13T19:25:22.958Z,81.60
2023-01-13T19:27:50.988Z,81.52
2023-01-13T19:30:19.144Z,81.88
2023-01-13T19:32:47.228Z,81.65
2023-01-13T19:35:17.934Z,81.26
2023-01-13T19:37:45.951Z,81.47
2023-01-13T19:40:14.062Z,81.75
2023-01-13T19:43:04.057Z,81.74
2023-01-13T19:45:34.962Z,82.03
2023-01-13T19:48:05.040Z,81.71
2023-01-13T19:50:38.778Z,82.06
2023-01-13T19:53:12.341Z,81.68
2023-01-13T19:55:48.523Z,81.76
2023-01-13T19:58:20.994Z,81.63
2023-01-13T20:00:49.053Z,82.00
2023-01-13T20:03:25.953Z,81.96
2023-01-13T20:05:54.961Z,82.41
2023-01-13T20:08:22.950Z,82.46
2023-01-13T20:11:11.189Z,82.78
2023-01-13T20:13:39.095Z,82.93
2023-01-13T20:16:07.771Z,82.78
2023-01-13T20:18:37.099Z,82.88
2023-01-13T20:21:07.034Z,83.03
2023-01-13T20:23:35.962Z,83.01
2023-01-13T20:26:07.681Z,83.24
2023-01-13T20:28:38.762Z,82.91
2023-01-13T20:31:12.339Z,82.96
2023-01-13T20:33:40.723Z,83.03
2023-01-13T20:36:20.375Z,83.05
2023-01-13T20:38:48.300Z,82.81
2023-01-13T20:41:34.888Z,82.87
2023-01-13T20:44:02.837Z,82.91
2023-01-13T20:46:30.878Z,82.96
2023-01-13T20:48:58.769Z,82.77
2023-01-13T20:51:29.372Z,83.10
2023-01-13T20:53:57.635Z,83.27
2023-01-13T20:56:25.566Z,83.49
2023-01-13T20:58:53.476Z,83.48
2023-01-13T21:01:21.473Z,83.41
2023-01-13T21:03:49.674Z,83.53
2023-01-13T21:06:20.249Z,83.56
2023-01-13T21:08:48.643Z,83.63
2023-01-13T21:11:36.504Z,83.55
2023-01-13T21:14:23.251Z,83.69
2023-01-13T21:16:51.278Z,83.73
2023-01-13T21:19:19.267Z,83.83
2023-01-13T21:21:47.279Z,83.85
2023-01-13T21:24:15.201Z,84.14
2023-01-13T21:26:43.165Z,83.98
2023-01-13T21:29:11.078Z,84.21
2023-01-13T21:31:39.048Z,84.02
2023-01-13T21:34:06.915Z,84.24
2023-01-13T21:36:34.853Z,84.40
2023-01-13T21:39:02.951Z,84.18
2023-01-13T21:41:49.503Z,84.39
2023-01-13T21:44:38.683Z,84.05
2023-01-13T21:47:36.803Z,84.22
2023-01-13T21:50:10.378Z,84.45
2023-01-13T21:52:39.043Z,84.37
2023-01-13T21:55:26.248Z,84.25
2023-01-13T21:57:55.414Z,84.10
2023-01-13T22:00:29.885Z,84.09
2023-01-13T22:02:59.438Z,84.01
2023-01-13T22:05:27.371Z,84.08
2023-01-13T22:07:55.455Z,84.35
2023-01-13T22:10:27.006Z,84.47
2023-01-13T22:12:58.521Z,84.46
2023-01-13T22:15:29.040Z,84.34
2023-01-13T22:17:57.563Z,84.63
2023-01-13T22:20:25.826Z,84.33
2023-01-13T22:22:53.679Z,84.08
2023-01-13T22:25:21.732Z,84.09
2023-01-13T22:27:49.772Z,84.24
2023-01-13T22:30:21.619Z,84.20
2023-01-13T22:32:50.013Z,84.24
2023-01-13T22:35:17.961Z,84.50
2023-01-13T22:37:45.835Z,84.50
2023-01-13T22:40:13.947Z,84.44
2023-01-13T22:42:42.943Z,84.49
2023-01-13T22:45:13.707Z,84.64
2023-01-13T22:47:41.945Z,85.08
2023-01-13T22:50:12.351Z,85.15
2023-01-13T22:52:40.273Z,85.47
2023-01-13T22:55:08.507Z,85.34
2023-01-13T22:57:46.961Z,85.43
2023-01-13T23:00:18.949Z,85.94
2023-01-13T23:02:47.115Z,85.89
2023-01-13T23:05:15.101Z,86.17
2023-01-13T23:07:43.024Z,86.26
2023-01-13T23:10:11.415Z,86.53
2023-01-13T23:12:39.418Z,86.44
2023-01-13T23:15:08.063Z,86.61
2023-01-13T23:17:36.036Z,86.58
2023-01-13T23:20:04.214Z,86.75
2023-01-13T23:22:32.170Z,87.06
2023-01-13T23:25:00.025Z,87.05
2023-01-13T23:27:27.896Z,86.92
2023-01-13T23:29:56.234Z,87.00
2023-01-13T23:32:24.142Z,87.05
2023-01-13T23:34:52.162Z,87.19
2023-01-13T23:37:20.056Z,87.17
2023-01-13T23:39:47.936Z,87.27
2023-01-13T23:42:15.968Z,87.22
2023-01-13T23:44:43.946Z,87.58
2023-01-13T23:47:12.649Z,87.24
2023-01-13T23:49:40.899Z,87.33
2023-01-13T23:52:08.779Z,87.38
2023-01-13T23:54:36.685Z,87.32
2023-01-13T23:57:04.566Z,87.76
2023-01-13T23:59:32.516Z,87.41
